Aeroporto :
LOGIN :

Iscrizione | Disclaimer

   EN    FR    IT 

 










Sommario :    VFR   VFR Marginale   IFR   IFR Intensivo   IFR Molto Intensivo
Visibilità : 
Base nubi : 
>= 8 km
>= 3000ft
5 / 8 km
1000 / 3000 ft
1500m / 5 km
500 / 1000 ft
800 / 1500m
200 / 500 ft
< 800m
< 200 ft
Simboli :   Temporali  Nebbia  Neve Forte  Precipitazioni Forti  Vento > 20 kt
SIGMETs :   Varie  Temporali  Ghiacco  Turbolenza  Onda orograficha  Ceneri Vulcaniche






- Altitudine del aeroporto : 1411 ft
- Codice IATA : GVA


LSGG - Genève Cointrin

ULTIMO METAR :
  • 250150Z AUTO VRB01KT CAVOK 09/07 Q1030 NOSIG

METARs OBSOLETI :
  • 250120Z AUTO 01004KT CAVOK 10/07 Q1030 NOSIG
  • 250050Z AUTO 35003KT CAVOK 10/07 Q1030 NOSIG
  • 250020Z AUTO 31004KT CAVOK 10/07 Q1030 NOSIG
  • 242350Z AUTO VRB02KT CAVOK 10/07 Q1030 NOSIG
  • 242320Z AUTO VRB02KT CAVOK 12/07 Q1030 NOSIG

TAF TAF LSGG
Valido dal 25 a 00 ore il 26 a 06 ore UTC


242325Z 2500/2606 VRB03KT CAVOK TX22/2515Z TN09/2505Z TN11/2605Z
BECMG 2507/2510 04012KT
ATIS : +41 22 417 40 81



MetMap, La meteo Aeronautica in un colpo d'occhio ! - Copyright ORBIFLY Dicembre 2007 - Disclaimer

ORBIFLY MET'MAP TEAM :

Programmazione e sviluppo : Alexandra Zaïnal
Concezione : Baudouin d'Aumeries
Aiuto per la programmazione : Marc-Olivier Méhu
Supporto tecnico e logistico : Manuel Goepfert
Aiuto per la traduzione : Arnaldo La Scala

Contatto : metmap@orbifly.com




FONTI E CREDITI :

   NOAA